createdAt,value
2022-12-09T00:01:40.870Z,99935.78
2022-12-09T00:04:10.482Z,99925.97
2022-12-09T00:06:40.149Z,99949.06
2022-12-09T00:09:15.286Z,99950.03
2022-12-09T00:11:45.333Z,99932.38
2022-12-09T00:14:16.154Z,99953.69
2022-12-09T00:16:45.573Z,99950.84
2022-12-09T00:19:15.129Z,99949.97
2022-12-09T00:21:44.523Z,99945.53
2022-12-09T00:24:15.364Z,99951.47
2022-12-09T00:26:44.703Z,99951.19
2022-12-09T00:29:15.413Z,99952.69
2022-12-09T00:31:45.041Z,99940.44
2022-12-09T00:34:15.653Z,99940.84
2022-12-09T00:36:45.024Z,99943.47
2022-12-09T00:39:14.337Z,99953.34
2022-12-09T00:41:44.641Z,99949.16
2022-12-09T00:44:15.338Z,99953.97
2022-12-09T00:46:44.661Z,99952.72
2022-12-09T00:49:14.921Z,99946.34
2022-12-09T00:51:44.210Z,99938.53
2022-12-09T00:54:13.718Z,99940.38
2022-12-09T00:56:43.166Z,99948.50
2022-12-09T00:59:12.512Z,99950.16
2022-12-09T01:01:43.538Z,99951.84
2022-12-09T01:04:14.113Z,99939.13
2022-12-09T01:06:43.657Z,99949.34
2022-12-09T01:09:14.061Z,99941.91
2022-12-09T01:11:43.816Z,99936.97
2022-12-09T01:14:14.810Z,99943.41
2022-12-09T01:16:45.522Z,99944.63
2022-12-09T01:19:15.713Z,99944.25
2022-12-09T01:21:45.056Z,99942.03
2022-12-09T01:24:15.888Z,99938.94
2022-12-09T01:26:45.220Z,99950.34
2022-12-09T01:29:14.804Z,99947.97
2022-12-09T01:31:45.845Z,99938.47
2022-12-09T01:34:15.138Z,99945.56
2022-12-09T01:36:44.722Z,99950.34
2022-12-09T01:39:14.267Z,99950.94
2022-12-09T01:41:43.726Z,99944.34
2022-12-09T01:44:16.984Z,99941.53
2022-12-09T01:46:48.588Z,99949.31
2022-12-09T01:49:23.955Z,99941.41
2022-12-09T01:52:02.844Z,99935.50
2022-12-09T01:54:34.058Z,99939.75
2022-12-09T01:57:06.589Z,99951.03
2022-12-09T01:59:38.354Z,99951.03
2022-12-09T02:02:15.067Z,99948.22
2022-12-09T02:04:48.014Z,99948.63
2022-12-09T02:07:20.569Z,99947.91
2022-12-09T02:09:53.542Z,99947.91
2022-12-09T02:12:43.211Z,99938.78
2022-12-09T02:15:19.691Z,99949.00
2022-12-09T02:17:56.018Z,99943.81
2022-12-09T02:20:31.785Z,99945.31
2022-12-09T02:23:07.469Z,99943.53
2022-12-09T02:25:44.700Z,99924.41
2022-12-09T02:28:58.593Z,99944.72
2022-12-09T02:31:50.107Z,99945.91
2022-12-09T02:34:22.253Z,99939.94
2022-12-09T02:37:06.224Z,99945.72
2022-12-09T02:39:41.470Z,99945.56
2022-12-09T02:42:16.421Z,99951.50
2022-12-09T02:44:49.498Z,99944.13
2022-12-09T02:47:24.367Z,99930.41
2022-12-09T02:50:00.214Z,99930.41
2022-12-09T02:52:32.482Z,99928.97
2022-12-09T02:55:05.010Z,99923.16
2022-12-09T02:57:38.030Z,99926.22
2022-12-09T03:00:09.513Z,99921.72
2022-12-09T03:02:43.928Z,99915.03
2022-12-09T03:05:22.118Z,99916.53
2022-12-09T03:08:04.098Z,99911.91
2022-12-09T03:10:39.344Z,99905.72
2022-12-09T03:13:14.662Z,99913.81
2022-12-09T03:15:49.455Z,99899.78
2022-12-09T03:18:22.274Z,99911.03
2022-12-09T03:20:53.233Z,99911.88
2022-12-09T03:23:28.405Z,99912.63
2022-12-09T03:25:59.815Z,99893.16
2022-12-09T03:28:32.657Z,99902.13
2022-12-09T03:31:06.774Z,99898.75
2022-12-09T03:33:36.415Z,99903.34
2022-12-09T03:36:12.568Z,99892.53
2022-12-09T03:38:43.944Z,99901.97
2022-12-09T03:41:21.858Z,99894.53
2022-12-09T03:43:56.850Z,99892.47
2022-12-09T03:46:27.008Z,99895.00
2022-12-09T03:48:57.304Z,99895.31
2022-12-09T03:51:31.760Z,99891.13
2022-12-09T03:54:06.809Z,99890.59
2022-12-09T03:56:40.084Z,99896.38
2022-12-09T03:59:13.754Z,99895.16
2022-12-09T04:01:45.478Z,99891.75
2022-12-09T04:04:18.158Z,99885.63
2022-12-09T04:06:49.382Z,99885.75
2022-12-09T04:09:19.997Z,99886.75
2022-12-09T04:11:49.300Z,99882.09
2022-12-09T04:14:18.694Z,99887.41
2022-12-09T04:16:48.228Z,99881.78
2022-12-09T04:19:18.283Z,99883.00
2022-12-09T04:21:49.449Z,99876.00
2022-12-09T04:24:19.024Z,99879.00
2022-12-09T04:26:48.762Z,99877.94
2022-12-09T04:29:18.348Z,99878.00
2022-12-09T04:31:47.978Z,99879.25
2022-12-09T04:34:17.483Z,99872.22
2022-12-09T04:36:46.735Z,99881.28
2022-12-09T04:39:17.587Z,99874.91
2022-12-09T04:41:46.829Z,99870.28
2022-12-09T04:44:16.111Z,99875.09
2022-12-09T04:46:45.756Z,99878.16
2022-12-09T04:49:15.032Z,99873.22
2022-12-09T04:51:44.306Z,99875.25
2022-12-09T04:54:14.799Z,99862.59
2022-12-09T04:56:45.617Z,99877.91
2022-12-09T04:59:16.089Z,99878.34
2022-12-09T05:01:45.811Z,99875.41
2022-12-09T05:04:15.562Z,99876.81
2022-12-09T05:06:45.081Z,99886.13
2022-12-09T05:09:15.296Z,99888.44
2022-12-09T05:11:46.327Z,99881.66
2022-12-09T05:14:15.903Z,99878.59
2022-12-09T05:16:45.446Z,99887.88
2022-12-09T05:19:15.150Z,99881.66
2022-12-09T05:21:45.255Z,99878.28
2022-12-09T05:24:14.897Z,99878.63
2022-12-09T05:26:45.726Z,99874.91
2022-12-09T05:29:20.852Z,99876.34
2022-12-09T05:31:52.618Z,99883.75
2022-12-09T05:34:22.155Z,99880.81
2022-12-09T05:36:52.452Z,99883.78
2022-12-09T05:39:22.143Z,99891.66
2022-12-09T05:41:53.325Z,99881.94
2022-12-09T05:44:23.224Z,99882.94
2022-12-09T05:46:52.845Z,99872.47
2022-12-09T05:49:22.869Z,99876.13
2022-12-09T05:51:52.652Z,99872.06
2022-12-09T05:54:22.444Z,99877.03
2022-12-09T05:56:53.372Z,99872.22
2022-12-09T05:59:22.706Z,99865.41
2022-12-09T06:01:52.330Z,99870.47
2022-12-09T06:04:21.948Z,99872.03
2022-12-09T06:06:51.796Z,99876.56
2022-12-09T06:09:21.869Z,99871.34
2022-12-09T06:11:52.983Z,99869.09
2022-12-09T06:14:22.519Z,99879.78
2022-12-09T06:16:51.850Z,99874.44
2022-12-09T06:19:21.711Z,99868.09
2022-12-09T06:21:51.191Z,99871.22
2022-12-09T06:24:21.158Z,99884.81
2022-12-09T06:26:50.600Z,99878.47
2022-12-09T06:29:21.322Z,99878.47
2022-12-09T06:31:50.889Z,99880.16
2022-12-09T06:34:20.306Z,99875.66
2022-12-09T06:36:49.786Z,99875.66
2022-12-09T06:39:19.445Z,99874.25
2022-12-09T06:41:49.137Z,99869.06
2022-12-09T06:44:23.521Z,99873.41
2022-12-09T06:46:55.415Z,99854.78
2022-12-09T06:49:24.942Z,99867.50
2022-12-09T06:51:54.613Z,99869.31
2022-12-09T06:54:24.256Z,99873.13
2022-12-09T06:56:53.879Z,99868.31
2022-12-09T06:59:23.569Z,99879.59
2022-12-09T07:01:54.469Z,99881.00
2022-12-09T07:04:24.243Z,99875.91
2022-12-09T07:06:53.862Z,99878.19
2022-12-09T07:09:23.894Z,99878.19
2022-12-09T07:11:53.506Z,99880.03
2022-12-09T07:14:22.979Z,99884.09
2022-12-09T07:16:52.995Z,99888.91
2022-12-09T07:19:24.953Z,99882.72
2022-12-09T07:21:55.174Z,99891.16
2022-12-09T07:24:24.901Z,99896.22
2022-12-09T07:26:54.520Z,99887.63
2022-12-09T07:29:24.126Z,99894.09
2022-12-09T07:31:53.545Z,99895.09
2022-12-09T07:34:24.501Z,99894.81
2022-12-09T07:36:54.712Z,99902.59
2022-12-09T07:39:24.163Z,99891.59
2022-12-09T07:41:56.896Z,99891.03
2022-12-09T07:44:31.136Z,99891.13
2022-12-09T07:47:01.072Z,99899.75
2022-12-09T07:49:32.457Z,99890.91
2022-12-09T07:52:02.078Z,99900.34
2022-12-09T07:54:31.423Z,99899.38
2022-12-09T07:57:01.076Z,99901.91
2022-12-09T07:59:30.690Z,99898.53
2022-12-09T08:02:04.166Z,99906.94
2022-12-09T08:04:38.587Z,99904.22
2022-12-09T08:07:08.244Z,99896.28
2022-12-09T08:09:37.827Z,99896.78
2022-12-09T08:12:07.869Z,99906.19
2022-12-09T08:14:37.965Z,99901.09
2022-12-09T08:17:07.437Z,99906.19
2022-12-09T08:19:38.693Z,99906.47
2022-12-09T08:22:08.148Z,99909.63
2022-12-09T08:24:37.647Z,99905.09
2022-12-09T08:27:07.093Z,99907.03
2022-12-09T08:29:37.299Z,99909.53
2022-12-09T08:32:07.529Z,99905.03
2022-12-09T08:34:38.769Z,99910.19
2022-12-09T08:37:08.136Z,99903.66
2022-12-09T08:39:37.478Z,99901.84
2022-12-09T08:42:07.380Z,99902.75
2022-12-09T08:44:38.887Z,99909.00
2022-12-09T08:47:08.293Z,99910.03
2022-12-09T08:49:39.404Z,99907.13
2022-12-09T08:52:09.511Z,99917.31
2022-12-09T08:54:38.814Z,99908.38
2022-12-09T08:57:08.356Z,99904.56
2022-12-09T08:59:43.451Z,99905.84
2022-12-09T09:02:14.544Z,99907.44
2022-12-09T09:04:45.515Z,99909.91
2022-12-09T09:07:15.880Z,99912.44
2022-12-09T09:09:46.162Z,99910.94
2022-12-09T09:12:15.556Z,99907.78
2022-12-09T09:14:45.184Z,99899.28
2022-12-09T09:17:15.168Z,99911.13
2022-12-09T09:19:46.408Z,99904.38
2022-12-09T09:22:15.748Z,99919.16
2022-12-09T09:24:45.590Z,99914.09
2022-12-09T09:27:14.892Z,99914.00
2022-12-09T09:29:44.487Z,99920.00
2022-12-09T09:32:14.150Z,99929.66
2022-12-09T09:34:45.025Z,99931.22
2022-12-09T09:37:16.461Z,99933.16
2022-12-09T09:39:46.009Z,99923.41
2022-12-09T09:42:19.025Z,99916.97
2022-12-09T09:44:50.090Z,99931.16
2022-12-09T09:47:32.762Z,99922.25
2022-12-09T09:50:21.171Z,99928.25
2022-12-09T09:52:55.200Z,99933.63
2022-12-09T09:55:34.854Z,99933.91
2022-12-09T09:58:15.064Z,99928.00
2022-12-09T10:00:49.344Z,99929.69
2022-12-09T10:03:30.410Z,99936.69
2022-12-09T10:06:04.001Z,99913.41
2022-12-09T10:08:45.771Z,99922.63
2022-12-09T10:11:19.811Z,99923.94
2022-12-09T10:13:56.298Z,99925.41
2022-12-09T10:16:35.773Z,99916.50
2022-12-09T10:19:10.589Z,99914.94
2022-12-09T10:21:43.662Z,99907.97
2022-12-09T10:24:24.941Z,99903.75
2022-12-09T10:27:06.261Z,99909.97
2022-12-09T10:29:51.455Z,99899.22
2022-12-09T10:32:23.858Z,99884.00
2022-12-09T10:34:53.510Z,99896.13
2022-12-09T10:37:28.453Z,99895.69
2022-12-09T10:40:04.034Z,99888.75
2022-12-09T10:42:57.485Z,99884.22
2022-12-09T10:45:40.142Z,99895.31
2022-12-09T10:48:32.749Z,99885.09
2022-12-09T10:51:06.069Z,99894.03
2022-12-09T10:53:37.607Z,99881.75
2022-12-09T10:56:09.225Z,99883.94
2022-12-09T10:58:38.678Z,99876.88
2022-12-09T11:01:11.030Z,99888.25
2022-12-09T11:03:48.359Z,99887.63
2022-12-09T11:06:25.943Z,99888.63
2022-12-09T11:08:58.002Z,99881.31
2022-12-09T11:11:44.622Z,99871.41
2022-12-09T11:14:24.086Z,99872.19
2022-12-09T11:16:55.647Z,99874.53
2022-12-09T11:19:38.995Z,99876.66
2022-12-09T11:22:23.144Z,99871.66
2022-12-09T11:24:56.765Z,99863.97
2022-12-09T11:27:31.227Z,99871.78
2022-12-09T11:30:14.089Z,99868.50
2022-12-09T11:32:59.778Z,99867.63
2022-12-09T11:35:52.072Z,99874.56
2022-12-09T11:38:42.735Z,99867.69
2022-12-09T11:41:39.058Z,99861.91
2022-12-09T11:44:24.718Z,99861.84
2022-12-09T11:47:01.039Z,99861.00
2022-12-09T11:49:33.337Z,99867.16
2022-12-09T11:52:24.371Z,99865.38
2022-12-09T11:55:02.927Z,99863.38
2022-12-09T11:57:37.381Z,99870.94
2022-12-09T12:00:19.760Z,99867.75
2022-12-09T12:02:56.849Z,99868.94
2022-12-09T12:05:30.997Z,99862.72
2022-12-09T12:08:08.279Z,99849.66
2022-12-09T12:10:40.846Z,99863.88
2022-12-09T12:13:18.139Z,99859.63
2022-12-09T12:15:56.958Z,99866.06
2022-12-09T12:18:30.878Z,99854.31
2022-12-09T12:21:26.814Z,99859.63
2022-12-09T12:24:29.830Z,99856.41
2022-12-09T12:27:09.076Z,99831.72
2022-12-09T12:29:50.139Z,99857.06
2022-12-09T12:32:33.020Z,99849.97
2022-12-09T12:35:22.775Z,99857.19
2022-12-09T12:38:06.453Z,99853.75
2022-12-09T12:40:42.330Z,99851.22
2022-12-09T12:44:10.087Z,99856.72
2022-12-09T12:46:52.470Z,99850.84
2022-12-09T12:49:41.866Z,99843.25
2022-12-09T12:52:54.253Z,99841.66
2022-12-09T12:55:23.512Z,99838.63
2022-12-09T12:58:03.378Z,99827.56
2022-12-09T13:00:38.625Z,99839.34
2022-12-09T13:03:22.253Z,99824.09
2022-12-09T13:05:55.661Z,99824.41
2022-12-09T13:08:29.950Z,99827.63
2022-12-09T13:11:04.425Z,99820.38
2022-12-09T13:13:38.994Z,99827.75
2022-12-09T13:16:16.690Z,99831.31
2022-12-09T13:18:46.279Z,99822.50
2022-12-09T13:21:18.000Z,99824.09
2022-12-09T13:23:59.941Z,99824.41
2022-12-09T13:26:41.047Z,99823.06
2022-12-09T13:29:23.306Z,99825.66
2022-12-09T13:32:00.233Z,99831.88
2022-12-09T13:34:39.216Z,99825.66
2022-12-09T13:37:35.092Z,99828.84
2022-12-09T13:40:27.887Z,99798.28
2022-12-09T13:43:05.927Z,99820.75
2022-12-09T13:45:37.132Z,99819.78
2022-12-09T13:48:28.840Z,99815.31
2022-12-09T13:50:59.920Z,99813.91
2022-12-09T13:53:34.012Z,99814.38
2022-12-09T13:56:05.531Z,99818.91
2022-12-09T13:58:51.859Z,99822.69
2022-12-09T14:01:25.800Z,99818.19
2022-12-09T14:04:03.204Z,99807.94
2022-12-09T14:06:37.365Z,99814.16
2022-12-09T14:09:25.005Z,99822.41
2022-12-09T14:11:55.527Z,99820.81
2022-12-09T14:14:50.358Z,99817.25
2022-12-09T14:17:59.054Z,99816.78
2022-12-09T14:20:31.680Z,99811.34
2022-12-09T14:23:16.915Z,99813.66
2022-12-09T14:25:57.918Z,99816.75
2022-12-09T14:28:56.829Z,99807.97
2022-12-09T14:32:00.210Z,99809.03
2022-12-09T14:34:37.434Z,99810.16
2022-12-09T14:37:49.059Z,99820.84
2022-12-09T14:40:37.146Z,99807.97
2022-12-09T14:43:24.101Z,99815.19
2022-12-09T14:45:58.057Z,99818.94
2022-12-09T14:48:30.632Z,99817.50
2022-12-09T14:51:17.030Z,99817.78
2022-12-09T14:53:51.707Z,99819.03
2022-12-09T14:56:23.809Z,99823.34
2022-12-09T14:58:57.710Z,99826.56
2022-12-09T15:01:27.102Z,99826.28
2022-12-09T15:03:58.201Z,99832.56
2022-12-09T15:06:28.500Z,99822.75
2022-12-09T15:08:59.888Z,99825.44
2022-12-09T15:11:32.551Z,99824.34
2022-12-09T15:14:21.956Z,99824.94
2022-12-09T15:16:51.941Z,99832.22
2022-12-09T15:19:58.561Z,99831.44
2022-12-09T15:22:23.292Z,99829.94
2022-12-09T15:24:54.047Z,99826.06
2022-12-09T15:27:25.503Z,99829.50
2022-12-09T15:29:57.340Z,99835.16
2022-12-09T15:32:29.498Z,99838.41
2022-12-09T15:35:17.593Z,99843.06
2022-12-09T15:37:50.959Z,99835.47
2022-12-09T15:40:22.590Z,99843.81
2022-12-09T15:42:55.379Z,99841.22
2022-12-09T15:45:28.382Z,99843.94
2022-12-09T15:48:03.267Z,99846.94
2022-12-09T15:50:37.929Z,99859.78
2022-12-09T15:53:12.671Z,99850.81
2022-12-09T15:55:50.233Z,99859.81
2022-12-09T15:58:24.614Z,99870.19
2022-12-09T16:00:56.221Z,99863.16
2022-12-09T16:03:28.019Z,99866.72
2022-12-09T16:05:59.637Z,99854.78
2022-12-09T16:08:34.242Z,99862.69
2022-12-09T16:11:03.551Z,99878.75
2022-12-09T16:13:33.521Z,99868.19
2022-12-09T16:16:25.601Z,99866.94
2022-12-09T16:18:56.789Z,99879.03
2022-12-09T16:21:29.323Z,99874.25
2022-12-09T16:24:08.682Z,99875.38
2022-12-09T16:26:40.882Z,99878.03
2022-12-09T16:29:27.332Z,99876.78
2022-12-09T16:32:23.495Z,99879.88
2022-12-09T16:34:54.567Z,99881.28
2022-12-09T16:37:29.767Z,99886.78
2022-12-09T16:39:59.616Z,99874.50
2022-12-09T16:42:32.435Z,99883.81
2022-12-09T16:45:23.066Z,99881.53
2022-12-09T16:47:58.002Z,99882.09
2022-12-09T16:50:30.624Z,99879.56
2022-12-09T16:53:05.798Z,99874.78
2022-12-09T16:55:35.361Z,99886.66
2022-12-09T16:58:04.739Z,99879.88
2022-12-09T17:00:34.055Z,99883.00
2022-12-09T17:03:09.123Z,99890.31
2022-12-09T17:05:41.188Z,99868.72
2022-12-09T17:08:13.946Z,99893.69
2022-12-09T17:10:43.799Z,99896.75
2022-12-09T17:13:13.818Z,99895.34
2022-12-09T17:15:43.377Z,99891.94
2022-12-09T17:18:14.274Z,99884.91
2022-12-09T17:20:43.720Z,99894.78
2022-12-09T17:23:13.099Z,99896.22
2022-12-09T17:25:42.462Z,99896.13
2022-12-09T17:28:11.809Z,99896.50
2022-12-09T17:30:41.141Z,99892.13
2022-12-09T17:33:10.513Z,99896.34
2022-12-09T17:35:41.371Z,99893.94
2022-12-09T17:38:10.703Z,99896.63
2022-12-09T17:40:40.045Z,99892.50
2022-12-09T17:43:09.491Z,99892.50
2022-12-09T17:45:42.325Z,99900.09
2022-12-09T17:48:12.108Z,99895.03
2022-12-09T17:50:42.885Z,99902.78
2022-12-09T17:53:12.171Z,99904.44
2022-12-09T17:55:41.452Z,99901.63
2022-12-09T17:58:10.814Z,99914.13
2022-12-09T18:00:40.459Z,99915.56
2022-12-09T18:03:17.691Z,99911.06
2022-12-09T18:05:53.020Z,99912.44
2022-12-09T18:08:22.443Z,99907.03
2022-12-09T18:10:51.812Z,99914.09
2022-12-09T18:13:21.094Z,99914.34
2022-12-09T18:15:54.195Z,99911.31
2022-12-09T18:18:23.838Z,99919.09
2022-12-09T18:20:54.842Z,99912.97
2022-12-09T18:23:24.257Z,99917.75
2022-12-09T18:25:54.960Z,99915.19
2022-12-09T18:28:27.717Z,99918.25
2022-12-09T18:30:57.082Z,99914.88
2022-12-09T18:33:26.476Z,99921.44
2022-12-09T18:35:57.201Z,99920.75
2022-12-09T18:38:26.510Z,99921.84
2022-12-09T18:41:05.130Z,99921.28
2022-12-09T18:43:37.501Z,99927.16
2022-12-09T18:46:08.985Z,99934.69
2022-12-09T18:48:39.645Z,99928.19
2022-12-09T18:51:17.658Z,99929.28
2022-12-09T18:53:48.061Z,99940.56
2022-12-09T18:56:19.665Z,99936.38
2022-12-09T18:59:05.837Z,99945.66
2022-12-09T19:01:39.465Z,99942.56
2022-12-09T19:04:14.029Z,99939.16
2022-12-09T19:06:46.614Z,99940.56
2022-12-09T19:09:17.862Z,99949.31
2022-12-09T19:11:48.333Z,99945.53
2022-12-09T19:14:19.312Z,99925.72
2022-12-09T19:16:49.244Z,99941.09
2022-12-09T19:19:20.503Z,99943.91
2022-12-09T19:21:52.230Z,99940.31
2022-12-09T19:24:23.841Z,99947.75
2022-12-09T19:26:54.812Z,99942.09
2022-12-09T19:29:26.043Z,99950.81
2022-12-09T19:31:57.450Z,99951.94
2022-12-09T19:34:29.219Z,99949.53
2022-12-09T19:37:02.960Z,99954.47
2022-12-09T19:39:35.024Z,99955.69
2022-12-09T19:42:06.758Z,99960.47
2022-12-09T19:45:00.188Z,99959.72
2022-12-09T19:47:28.465Z,99959.13
2022-12-09T19:49:58.805Z,99955.28
2022-12-09T19:52:29.781Z,99955.16
2022-12-09T19:54:59.109Z,99960.50
2022-12-09T19:57:28.462Z,99963.50
2022-12-09T19:59:57.758Z,99960.81
2022-12-09T20:02:27.236Z,99959.00
2022-12-09T20:04:57.445Z,99962.41
2022-12-09T20:07:26.791Z,99953.56
2022-12-09T20:09:57.817Z,99962.97
2022-12-09T20:12:27.379Z,99963.22
2022-12-09T20:14:57.259Z,99944.19
2022-12-09T20:17:27.692Z,99965.16
2022-12-09T20:19:58.306Z,99955.31
2022-12-09T20:22:28.952Z,99965.84
2022-12-09T20:25:01.072Z,99972.41
2022-12-09T20:27:31.911Z,99975.09
2022-12-09T20:30:02.924Z,99976.00
2022-12-09T20:32:34.444Z,99972.00
2022-12-09T20:35:08.728Z,99969.81
2022-12-09T20:37:39.824Z,99972.09
2022-12-09T20:40:13.263Z,99969.06
2022-12-09T20:42:44.187Z,99979.91
2022-12-09T20:45:14.413Z,99974.69
2022-12-09T20:47:44.298Z,99989.09
2022-12-09T20:50:14.361Z,99965.81
2022-12-09T20:52:44.273Z,99978.56
2022-12-09T20:55:16.345Z,99983.44
2022-12-09T20:57:46.906Z,99987.06
2022-12-09T21:00:18.101Z,99983.16
2022-12-09T21:02:48.101Z,99991.47
2022-12-09T21:05:19.082Z,99992.66
2022-12-09T21:07:49.999Z,99995.22
2022-12-09T21:10:22.677Z,99990.97
2022-12-09T21:12:54.010Z,99980.19
2022-12-09T21:15:26.117Z,99985.63
2022-12-09T21:17:57.506Z,99987.69
2022-12-09T21:20:28.793Z,99997.53
2022-12-09T21:23:32.208Z,99994.41
2022-12-09T21:25:52.924Z,99992.22
2022-12-09T21:28:24.157Z,99997.41
2022-12-09T21:30:55.483Z,99990.63
2022-12-09T21:33:26.688Z,100001.41
2022-12-09T21:35:57.989Z,100000.06
2022-12-09T21:38:29.087Z,99999.19
2022-12-09T21:41:05.811Z,100010.88
2022-12-09T21:43:37.786Z,100000.91
2022-12-09T21:46:11.021Z,99995.81
2022-12-09T21:48:42.540Z,100011.84
2022-12-09T21:51:14.683Z,100014.75
2022-12-09T21:53:47.234Z,100019.13
2022-12-09T21:56:21.919Z,100006.75
2022-12-09T21:58:53.405Z,100023.38
2022-12-09T22:01:26.213Z,100026.66
2022-12-09T22:03:56.701Z,100026.41
2022-12-09T22:06:26.306Z,100018.66
2022-12-09T22:08:55.610Z,100025.94
2022-12-09T22:11:28.657Z,100029.78
2022-12-09T22:13:59.409Z,100025.81
2022-12-09T22:16:30.700Z,100028.34
2022-12-09T22:19:01.872Z,100026.03
2022-12-09T22:21:33.996Z,100028.34
2022-12-09T22:24:05.581Z,100026.91
2022-12-09T22:26:36.541Z,100021.09
2022-12-09T22:29:07.172Z,100034.88
2022-12-09T22:31:38.337Z,100034.88
2022-12-09T22:34:09.760Z,100026.19
2022-12-09T22:36:40.360Z,100031.16
2022-12-09T22:39:13.024Z,100030.28
2022-12-09T22:41:44.209Z,100037.31
2022-12-09T22:44:15.321Z,100038.16
2022-12-09T22:46:45.083Z,100033.91
2022-12-09T22:49:16.061Z,100033.06
2022-12-09T22:51:46.425Z,100034.75
2022-12-09T22:54:16.570Z,100009.41
2022-12-09T22:56:47.413Z,100040.59
2022-12-09T22:59:17.410Z,100045.78
2022-12-09T23:01:48.241Z,100047.00
2022-12-09T23:04:22.906Z,100032.25
2022-12-09T23:06:52.544Z,100036.09
2022-12-09T23:09:23.752Z,100038.78
2022-12-09T23:11:54.882Z,100034.91
2022-12-09T23:14:24.130Z,100041.44
2022-12-09T23:16:53.432Z,100040.72
2022-12-09T23:19:22.708Z,100040.47
2022-12-09T23:21:52.009Z,100035.50
2022-12-09T23:24:24.971Z,100029.44
2022-12-09T23:26:57.419Z,100039.63
2022-12-09T23:29:26.704Z,100039.13
2022-12-09T23:31:55.971Z,100042.78
2022-12-09T23:34:25.183Z,100041.44
2022-12-09T23:36:55.818Z,100043.16
2022-12-09T23:39:25.118Z,100045.56
2022-12-09T23:41:54.412Z,100044.94
2022-12-09T23:44:25.022Z,100049.41
2022-12-09T23:46:54.312Z,100046.25
2022-12-09T23:49:23.632Z,100048.94
2022-12-09T23:51:53.130Z,100044.31
2022-12-09T23:54:22.370Z,100042.31
2022-12-09T23:56:51.625Z,100044.28
2022-12-09T23:59:22.989Z,100048.63
